sensor_id;sensor_type;location;lat;lon;timestamp;temperature;humidity
29341;DHT22;16337;59.536;13.468;2022-07-10T00:00:15;12.30;99.90
29341;DHT22;16337;59.536;13.468;2022-07-10T00:02:43;12.20;99.90
29341;DHT22;16337;59.536;13.468;2022-07-10T00:05:10;12.10;99.90
29341;DHT22;16337;59.536;13.468;2022-07-10T00:07:36;12.10;99.90
29341;DHT22;16337;59.536;13.468;2022-07-10T00:10:02;12.10;99.90
29341;DHT22;16337;59.536;13.468;2022-07-10T00:12:29;12.20;99.90
29341;DHT22;16337;59.536;13.468;2022-07-10T00:14:54;12.20;99.90
29341;DHT22;16337;59.536;13.468;2022-07-10T00:17:20;12.20;99.90
29341;DHT22;16337;59.536;13.468;2022-07-10T00:19:46;12.20;99.90
29341;DHT22;16337;59.536;13.468;2022-07-10T00:22:11;12.10;99.90
29341;DHT22;16337;59.536;13.468;2022-07-10T00:24:37;12.10;99.90
29341;DHT22;16337;59.536;13.468;2022-07-10T00:27:03;12.10;99.90
29341;DHT22;16337;59.536;13.468;2022-07-10T00:29:29;12.10;99.90
29341;DHT22;16337;59.536;13.468;2022-07-10T00:31:55;12.10;99.90
29341;DHT22;16337;59.536;13.468;2022-07-10T00:34:21;12.10;99.90
29341;DHT22;16337;59.536;13.468;2022-07-10T00:36:46;12.00;99.90
29341;DHT22;16337;59.536;13.468;2022-07-10T00:39:12;12.00;99.90
29341;DHT22;16337;59.536;13.468;2022-07-10T00:41:38;11.90;99.90
29341;DHT22;16337;59.536;13.468;2022-07-10T00:44:04;11.80;99.90
29341;DHT22;16337;59.536;13.468;2022-07-10T00:46:30;11.80;99.90
29341;DHT22;16337;59.536;13.468;2022-07-10T00:48:57;11.90;99.90
29341;DHT22;16337;59.536;13.468;2022-07-10T00:51:28;11.90;99.90
29341;DHT22;16337;59.536;13.468;2022-07-10T00:53:56;11.70;99.90
29341;DHT22;16337;59.536;13.468;2022-07-10T00:56:24;11.80;99.90
29341;DHT22;16337;59.536;13.468;2022-07-10T00:58:50;11.60;99.90
29341;DHT22;16337;59.536;13.468;2022-07-10T01:01:17;11.50;99.90
29341;DHT22;16337;59.536;13.468;2022-07-10T01:03:44;11.50;99.90
29341;DHT22;16337;59.536;13.468;2022-07-10T01:06:11;11.40;99.90
29341;DHT22;16337;59.536;13.468;2022-07-10T01:08:37;11.40;99.90
29341;DHT22;16337;59.536;13.468;2022-07-10T01:11:03;11.40;99.90
29341;DHT22;16337;59.536;13.468;2022-07-10T01:13:29;11.50;99.90
29341;DHT22;16337;59.536;13.468;2022-07-10T01:15:55;11.50;99.90
29341;DHT22;16337;59.536;13.468;2022-07-10T01:18:21;11.50;99.90
29341;DHT22;16337;59.536;13.468;2022-07-10T01:20:52;11.50;99.90
29341;DHT22;16337;59.536;13.468;2022-07-10T01:23:17;11.50;99.90
29341;DHT22;16337;59.536;13.468;2022-07-10T01:25:43;11.50;99.90
29341;DHT22;16337;59.536;13.468;2022-07-10T01:28:09;11.50;99.90
29341;DHT22;16337;59.536;13.468;2022-07-10T01:30:35;11.50;99.90
29341;DHT22;16337;59.536;13.468;2022-07-10T01:33:01;11.50;99.90
29341;DHT22;16337;59.536;13.468;2022-07-10T01:35:26;11.40;99.90
29341;DHT22;16337;59.536;13.468;2022-07-10T01:37:52;11.30;99.90
29341;DHT22;16337;59.536;13.468;2022-07-10T01:40:18;11.20;99.90
29341;DHT22;16337;59.536;13.468;2022-07-10T01:42:43;11.10;99.90
29341;DHT22;16337;59.536;13.468;2022-07-10T01:45:11;11.10;99.90
29341;DHT22;16337;59.536;13.468;2022-07-10T01:47:37;11.00;99.90
29341;DHT22;16337;59.536;13.468;2022-07-10T01:50:04;10.90;99.90
29341;DHT22;16337;59.536;13.468;2022-07-10T01:52:30;11.00;99.90
29341;DHT22;16337;59.536;13.468;2022-07-10T01:54:55;11.00;99.90
29341;DHT22;16337;59.536;13.468;2022-07-10T01:57:21;11.00;99.90
29341;DHT22;16337;59.536;13.468;2022-07-10T01:59:47;11.00;99.90
29341;DHT22;16337;59.536;13.468;2022-07-10T02:02:13;10.90;99.90
29341;DHT22;16337;59.536;13.468;2022-07-10T02:04:38;10.90;99.90
29341;DHT22;16337;59.536;13.468;2022-07-10T02:07:15;11.00;99.90
29341;DHT22;16337;59.536;13.468;2022-07-10T02:09:42;11.00;99.90
29341;DHT22;16337;59.536;13.468;2022-07-10T02:12:09;10.90;99.90
29341;DHT22;16337;59.536;13.468;2022-07-10T02:14:36;10.90;99.90
29341;DHT22;16337;59.536;13.468;2022-07-10T02:17:03;10.90;99.90
29341;DHT22;16337;59.536;13.468;2022-07-10T02:19:29;10.90;99.90
29341;DHT22;16337;59.536;13.468;2022-07-10T02:21:55;11.00;99.90
29341;DHT22;16337;59.536;13.468;2022-07-10T02:24:21;11.00;99.90
29341;DHT22;16337;59.536;13.468;2022-07-10T02:26:46;11.10;99.90
29341;DHT22;16337;59.536;13.468;2022-07-10T02:29:12;11.20;99.90
29341;DHT22;16337;59.536;13.468;2022-07-10T02:31:38;11.10;99.90
29341;DHT22;16337;59.536;13.468;2022-07-10T02:34:07;11.20;99.90
29341;DHT22;16337;59.536;13.468;2022-07-10T02:36:33;11.20;99.90
29341;DHT22;16337;59.536;13.468;2022-07-10T02:38:59;11.20;99.90
29341;DHT22;16337;59.536;13.468;2022-07-10T02:41:25;11.20;99.90
29341;DHT22;16337;59.536;13.468;2022-07-10T02:43:51;11.30;99.90
29341;DHT22;16337;59.536;13.468;2022-07-10T02:46:17;11.40;99.90
29341;DHT22;16337;59.536;13.468;2022-07-10T02:48:42;11.40;99.90
29341;DHT22;16337;59.536;13.468;2022-07-10T02:51:08;11.50;99.90
29341;DHT22;16337;59.536;13.468;2022-07-10T02:53:34;11.50;99.90
29341;DHT22;16337;59.536;13.468;2022-07-10T02:56:00;11.60;99.90
29341;DHT22;16337;59.536;13.468;2022-07-10T02:58:25;11.70;99.90
29341;DHT22;16337;59.536;13.468;2022-07-10T03:00:51;11.70;99.90
29341;DHT22;16337;59.536;13.468;2022-07-10T03:03:17;11.70;99.90
29341;DHT22;16337;59.536;13.468;2022-07-10T03:05:46;11.70;99.90
29341;DHT22;16337;59.536;13.468;2022-07-10T03:08:12;11.70;99.90
29341;DHT22;16337;59.536;13.468;2022-07-10T03:10:38;11.70;99.90
29341;DHT22;16337;59.536;13.468;2022-07-10T03:13:04;11.70;99.90
29341;DHT22;16337;59.536;13.468;2022-07-10T03:15:30;11.70;99.90
29341;DHT22;16337;59.536;13.468;2022-07-10T03:17:56;11.70;99.90
29341;DHT22;16337;59.536;13.468;2022-07-10T03:20:21;11.60;99.90
29341;DHT22;16337;59.536;13.468;2022-07-10T03:22:47;11.60;99.90
29341;DHT22;16337;59.536;13.468;2022-07-10T03:25:13;11.60;99.90
29341;DHT22;16337;59.536;13.468;2022-07-10T03:27:39;11.60;99.90
29341;DHT22;16337;59.536;13.468;2022-07-10T03:30:06;11.60;99.90
29341;DHT22;16337;59.536;13.468;2022-07-10T03:32:32;11.60;99.90
29341;DHT22;16337;59.536;13.468;2022-07-10T03:34:58;11.60;99.90
29341;DHT22;16337;59.536;13.468;2022-07-10T03:37:24;11.60;99.90
29341;DHT22;16337;59.536;13.468;2022-07-10T03:39:49;11.60;99.90
29341;DHT22;16337;59.536;13.468;2022-07-10T03:42:15;11.60;99.90
29341;DHT22;16337;59.536;13.468;2022-07-10T03:44:41;11.70;99.90
29341;DHT22;16337;59.536;13.468;2022-07-10T03:47:07;11.70;99.90
29341;DHT22;16337;59.536;13.468;2022-07-10T03:49:32;11.80;99.90
29341;DHT22;16337;59.536;13.468;2022-07-10T03:52:02;11.80;99.90
29341;DHT22;16337;59.536;13.468;2022-07-10T03:54:29;11.90;99.90
29341;DHT22;16337;59.536;13.468;2022-07-10T03:56:55;11.90;99.90
29341;DHT22;16337;59.536;13.468;2022-07-10T03:59:40;12.00;99.90
29341;DHT22;16337;59.536;13.468;2022-07-10T04:02:06;12.00;99.90
29341;DHT22;16337;59.536;13.468;2022-07-10T04:04:32;12.00;99.90
29341;DHT22;16337;59.536;13.468;2022-07-10T04:06:58;12.00;99.90
29341;DHT22;16337;59.536;13.468;2022-07-10T04:09:24;12.10;99.90
29341;DHT22;16337;59.536;13.468;2022-07-10T04:11:49;12.20;99.90
29341;DHT22;16337;59.536;13.468;2022-07-10T04:14:15;12.20;99.90
29341;DHT22;16337;59.536;13.468;2022-07-10T04:16:41;12.30;99.90
29341;DHT22;16337;59.536;13.468;2022-07-10T04:19:07;12.50;99.90
29341;DHT22;16337;59.536;13.468;2022-07-10T04:21:32;12.60;99.90
29341;DHT22;16337;59.536;13.468;2022-07-10T04:23:58;12.70;99.90
29341;DHT22;16337;59.536;13.468;2022-07-10T04:26:24;12.80;99.90
29341;DHT22;16337;59.536;13.468;2022-07-10T04:28:49;12.90;99.90
29341;DHT22;16337;59.536;13.468;2022-07-10T04:31:15;13.00;99.90
29341;DHT22;16337;59.536;13.468;2022-07-10T04:33:41;13.10;99.90
29341;DHT22;16337;59.536;13.468;2022-07-10T04:36:07;13.20;99.90
29341;DHT22;16337;59.536;13.468;2022-07-10T04:38:33;13.30;99.90
29341;DHT22;16337;59.536;13.468;2022-07-10T04:40:59;13.40;99.90
29341;DHT22;16337;59.536;13.468;2022-07-10T04:43:25;13.50;99.90
29341;DHT22;16337;59.536;13.468;2022-07-10T04:45:51;13.60;99.90
29341;DHT22;16337;59.536;13.468;2022-07-10T04:48:17;13.60;99.90
29341;DHT22;16337;59.536;13.468;2022-07-10T04:50:42;13.70;99.90
29341;DHT22;16337;59.536;13.468;2022-07-10T04:53:08;13.70;99.90
29341;DHT22;16337;59.536;13.468;2022-07-10T04:55:34;13.80;99.90
29341;DHT22;16337;59.536;13.468;2022-07-10T04:58:00;13.80;99.90
29341;DHT22;16337;59.536;13.468;2022-07-10T05:00:26;13.80;99.90
29341;DHT22;16337;59.536;13.468;2022-07-10T05:02:51;13.90;99.90
29341;DHT22;16337;59.536;13.468;2022-07-10T05:05:17;13.90;99.90
29341;DHT22;16337;59.536;13.468;2022-07-10T05:07:43;14.00;99.90
29341;DHT22;16337;59.536;13.468;2022-07-10T05:10:09;14.10;99.90
29341;DHT22;16337;59.536;13.468;2022-07-10T05:12:35;14.10;99.90
29341;DHT22;16337;59.536;13.468;2022-07-10T05:15:01;14.10;99.90
29341;DHT22;16337;59.536;13.468;2022-07-10T05:17:27;14.00;99.90
29341;DHT22;16337;59.536;13.468;2022-07-10T05:19:57;13.80;99.90
29341;DHT22;16337;59.536;13.468;2022-07-10T05:22:24;13.70;99.90
29341;DHT22;16337;59.536;13.468;2022-07-10T05:24:49;13.70;99.90
29341;DHT22;16337;59.536;13.468;2022-07-10T05:27:15;13.90;99.90
29341;DHT22;16337;59.536;13.468;2022-07-10T05:29:46;13.80;99.90
29341;DHT22;16337;59.536;13.468;2022-07-10T05:32:12;13.80;99.90
29341;DHT22;16337;59.536;13.468;2022-07-10T05:34:37;13.70;99.90
29341;DHT22;16337;59.536;13.468;2022-07-10T05:37:03;13.80;99.90
29341;DHT22;16337;59.536;13.468;2022-07-10T05:39:29;13.90;99.90
29341;DHT22;16337;59.536;13.468;2022-07-10T05:41:55;14.10;99.90
29341;DHT22;16337;59.536;13.468;2022-07-10T05:44:23;14.40;99.90
29341;DHT22;16337;59.536;13.468;2022-07-10T05:46:49;14.70;99.90
29341;DHT22;16337;59.536;13.468;2022-07-10T05:49:14;14.80;99.90
29341;DHT22;16337;59.536;13.468;2022-07-10T05:51:41;14.90;99.90
29341;DHT22;16337;59.536;13.468;2022-07-10T05:54:06;15.00;99.90
29341;DHT22;16337;59.536;13.468;2022-07-10T05:56:32;15.10;99.90
29341;DHT22;16337;59.536;13.468;2022-07-10T05:58:58;15.20;99.90
29341;DHT22;16337;59.536;13.468;2022-07-10T06:01:24;15.30;99.90
29341;DHT22;16337;59.536;13.468;2022-07-10T06:03:51;15.40;99.90
29341;DHT22;16337;59.536;13.468;2022-07-10T06:06:17;15.40;99.90
29341;DHT22;16337;59.536;13.468;2022-07-10T06:08:44;15.60;99.90
29341;DHT22;16337;59.536;13.468;2022-07-10T06:11:10;15.60;99.90
29341;DHT22;16337;59.536;13.468;2022-07-10T06:13:36;15.70;99.90
29341;DHT22;16337;59.536;13.468;2022-07-10T06:16:02;15.70;99.90
29341;DHT22;16337;59.536;13.468;2022-07-10T06:18:29;15.90;99.90
29341;DHT22;16337;59.536;13.468;2022-07-10T06:20:55;15.90;99.90
29341;DHT22;16337;59.536;13.468;2022-07-10T06:23:21;15.90;99.90
29341;DHT22;16337;59.536;13.468;2022-07-10T06:25:46;16.00;99.90
29341;DHT22;16337;59.536;13.468;2022-07-10T06:28:15;15.90;99.90
29341;DHT22;16337;59.536;13.468;2022-07-10T06:30:41;15.90;99.90
29341;DHT22;16337;59.536;13.468;2022-07-10T06:33:06;15.90;99.90
29341;DHT22;16337;59.536;13.468;2022-07-10T06:35:32;16.00;99.90
29341;DHT22;16337;59.536;13.468;2022-07-10T06:37:57;16.20;99.90
29341;DHT22;16337;59.536;13.468;2022-07-10T06:40:23;16.30;99.90
29341;DHT22;16337;59.536;13.468;2022-07-10T06:42:50;16.40;99.90
29341;DHT22;16337;59.536;13.468;2022-07-10T06:45:15;16.50;99.90
29341;DHT22;16337;59.536;13.468;2022-07-10T06:47:41;16.60;99.90
29341;DHT22;16337;59.536;13.468;2022-07-10T06:50:28;16.60;99.90
29341;DHT22;16337;59.536;13.468;2022-07-10T06:52:58;16.60;99.90
29341;DHT22;16337;59.536;13.468;2022-07-10T06:55:24;16.70;99.90
29341;DHT22;16337;59.536;13.468;2022-07-10T06:57:50;16.80;99.90
29341;DHT22;16337;59.536;13.468;2022-07-10T07:00:16;16.90;99.90
29341;DHT22;16337;59.536;13.468;2022-07-10T07:02:42;17.00;99.90
29341;DHT22;16337;59.536;13.468;2022-07-10T07:05:08;16.60;99.90
29341;DHT22;16337;59.536;13.468;2022-07-10T07:07:34;16.40;99.90
29341;DHT22;16337;59.536;13.468;2022-07-10T07:10:01;15.90;99.90
29341;DHT22;16337;59.536;13.468;2022-07-10T07:12:27;15.60;99.90
29341;DHT22;16337;59.536;13.468;2022-07-10T07:14:53;15.40;99.90
29341;DHT22;16337;59.536;13.468;2022-07-10T07:17:19;15.20;99.90
29341;DHT22;16337;59.536;13.468;2022-07-10T07:19:49;15.00;99.90
29341;DHT22;16337;59.536;13.468;2022-07-10T07:22:33;15.10;99.90
29341;DHT22;16337;59.536;13.468;2022-07-10T07:25:17;15.10;99.90
29341;DHT22;16337;59.536;13.468;2022-07-10T07:27:43;15.20;99.90
29341;DHT22;16337;59.536;13.468;2022-07-10T07:30:11;15.30;99.90
29341;DHT22;16337;59.536;13.468;2022-07-10T07:32:38;15.50;99.90
29341;DHT22;16337;59.536;13.468;2022-07-10T07:35:05;15.50;99.90
29341;DHT22;16337;59.536;13.468;2022-07-10T07:37:42;15.60;99.90
29341;DHT22;16337;59.536;13.468;2022-07-10T07:40:13;15.80;99.90
29341;DHT22;16337;59.536;13.468;2022-07-10T07:42:39;15.90;99.90
29341;DHT22;16337;59.536;13.468;2022-07-10T07:45:06;16.20;99.90
29341;DHT22;16337;59.536;13.468;2022-07-10T07:47:46;16.60;99.90
29341;DHT22;16337;59.536;13.468;2022-07-10T07:50:18;16.60;99.90
29341;DHT22;16337;59.536;13.468;2022-07-10T07:52:45;16.30;99.90
29341;DHT22;16337;59.536;13.468;2022-07-10T07:55:12;16.10;99.90
29341;DHT22;16337;59.536;13.468;2022-07-10T07:57:38;16.30;99.90
29341;DHT22;16337;59.536;13.468;2022-07-10T08:00:05;16.80;99.90
29341;DHT22;16337;59.536;13.468;2022-07-10T08:02:32;17.30;99.90
29341;DHT22;16337;59.536;13.468;2022-07-10T08:04:58;17.30;99.90
29341;DHT22;16337;59.536;13.468;2022-07-10T08:07:45;17.40;99.90
29341;DHT22;16337;59.536;13.468;2022-07-10T08:10:14;17.80;99.90
29341;DHT22;16337;59.536;13.468;2022-07-10T08:12:41;17.70;99.90
29341;DHT22;16337;59.536;13.468;2022-07-10T08:15:11;17.60;99.90
29341;DHT22;16337;59.536;13.468;2022-07-10T08:17:37;17.60;99.90
29341;DHT22;16337;59.536;13.468;2022-07-10T08:20:04;17.50;99.90
29341;DHT22;16337;59.536;13.468;2022-07-10T08:22:31;17.40;99.90
29341;DHT22;16337;59.536;13.468;2022-07-10T08:24:57;17.40;99.90
29341;DHT22;16337;59.536;13.468;2022-07-10T08:27:24;17.10;99.90
29341;DHT22;16337;59.536;13.468;2022-07-10T08:29:50;16.90;99.90
29341;DHT22;16337;59.536;13.468;2022-07-10T08:32:16;16.80;99.90
29341;DHT22;16337;59.536;13.468;2022-07-10T08:34:42;16.70;99.90
29341;DHT22;16337;59.536;13.468;2022-07-10T08:37:08;16.60;99.90
29341;DHT22;16337;59.536;13.468;2022-07-10T08:39:33;16.60;99.90
29341;DHT22;16337;59.536;13.468;2022-07-10T08:42:00;16.50;99.90
29341;DHT22;16337;59.536;13.468;2022-07-10T08:44:28;16.50;99.90
29341;DHT22;16337;59.536;13.468;2022-07-10T08:46:54;16.50;99.90
29341;DHT22;16337;59.536;13.468;2022-07-10T08:49:20;16.60;99.90
29341;DHT22;16337;59.536;13.468;2022-07-10T08:51:54;16.90;99.90
29341;DHT22;16337;59.536;13.468;2022-07-10T08:54:22;17.30;99.90
29341;DHT22;16337;59.536;13.468;2022-07-10T08:56:50;17.70;99.90
29341;DHT22;16337;59.536;13.468;2022-07-10T08:59:17;18.00;99.90
29341;DHT22;16337;59.536;13.468;2022-07-10T09:01:43;18.60;99.90
29341;DHT22;16337;59.536;13.468;2022-07-10T09:04:16;18.90;99.90
29341;DHT22;16337;59.536;13.468;2022-07-10T09:06:44;19.50;99.90
29341;DHT22;16337;59.536;13.468;2022-07-10T09:09:10;19.40;99.90
29341;DHT22;16337;59.536;13.468;2022-07-10T09:11:41;19.10;99.90
29341;DHT22;16337;59.536;13.468;2022-07-10T09:14:09;18.60;99.90
29341;DHT22;16337;59.536;13.468;2022-07-10T09:16:38;18.20;99.90
29341;DHT22;16337;59.536;13.468;2022-07-10T09:19:23;17.90;99.90
29341;DHT22;16337;59.536;13.468;2022-07-10T09:21:54;17.80;99.90
29341;DHT22;16337;59.536;13.468;2022-07-10T09:24:21;17.70;99.90
29341;DHT22;16337;59.536;13.468;2022-07-10T09:29:21;17.70;99.90
29341;DHT22;16337;59.536;13.468;2022-07-10T09:31:58;17.70;99.90
29341;DHT22;16337;59.536;13.468;2022-07-10T09:42:26;19.10;99.90
29341;DHT22;16337;59.536;13.468;2022-07-10T09:44:53;19.10;99.90
29341;DHT22;16337;59.536;13.468;2022-07-10T09:50:28;18.30;99.90
29341;DHT22;16337;59.536;13.468;2022-07-10T09:52:59;18.00;99.90
29341;DHT22;16337;59.536;13.468;2022-07-10T09:55:27;17.90;99.90
29341;DHT22;16337;59.536;13.468;2022-07-10T09:57:55;18.00;99.90
29341;DHT22;16337;59.536;13.468;2022-07-10T10:00:26;18.20;99.90
29341;DHT22;16337;59.536;13.468;2022-07-10T10:03:05;18.40;99.90
29341;DHT22;16337;59.536;13.468;2022-07-10T10:05:43;18.50;99.90
29341;DHT22;16337;59.536;13.468;2022-07-10T10:08:25;18.30;99.90
29341;DHT22;16337;59.536;13.468;2022-07-10T10:10:51;18.40;99.90
29341;DHT22;16337;59.536;13.468;2022-07-10T10:13:23;18.50;99.90
29341;DHT22;16337;59.536;13.468;2022-07-10T10:15:51;18.80;99.90
29341;DHT22;16337;59.536;13.468;2022-07-10T10:18:19;19.00;99.90
29341;DHT22;16337;59.536;13.468;2022-07-10T10:20:49;19.00;99.90
29341;DHT22;16337;59.536;13.468;2022-07-10T10:23:18;19.00;99.90
29341;DHT22;16337;59.536;13.468;2022-07-10T10:25:53;19.00;99.90
29341;DHT22;16337;59.536;13.468;2022-07-10T10:28:24;19.00;99.90
29341;DHT22;16337;59.536;13.468;2022-07-10T10:30:58;18.90;99.90
29341;DHT22;16337;59.536;13.468;2022-07-10T10:36:11;18.10;99.90
29341;DHT22;16337;59.536;13.468;2022-07-10T10:46:33;17.40;99.90
29341;DHT22;16337;59.536;13.468;2022-07-10T10:49:05;17.50;99.90
29341;DHT22;16337;59.536;13.468;2022-07-10T10:51:57;17.70;99.90
29341;DHT22;16337;59.536;13.468;2022-07-10T10:54:31;17.90;99.90
29341;DHT22;16337;59.536;13.468;2022-07-10T10:57:15;18.10;99.90
29341;DHT22;16337;59.536;13.468;2022-07-10T10:59:59;18.30;99.90
29341;DHT22;16337;59.536;13.468;2022-07-10T11:02:27;18.30;99.90
29341;DHT22;16337;59.536;13.468;2022-07-10T11:10:58;18.40;99.90
29341;DHT22;16337;59.536;13.468;2022-07-10T11:13:27;18.20;99.90
29341;DHT22;16337;59.536;13.468;2022-07-10T11:15:55;18.10;99.90
29341;DHT22;16337;59.536;13.468;2022-07-10T11:18:23;18.10;99.90
29341;DHT22;16337;59.536;13.468;2022-07-10T11:20:52;18.30;99.90
29341;DHT22;16337;59.536;13.468;2022-07-10T11:26:36;18.70;99.90
29341;DHT22;16337;59.536;13.468;2022-07-10T11:29:05;18.80;99.90
29341;DHT22;16337;59.536;13.468;2022-07-10T11:31:32;18.70;99.90
29341;DHT22;16337;59.536;13.468;2022-07-10T11:34:03;18.40;99.90
29341;DHT22;16337;59.536;13.468;2022-07-10T11:36:29;18.30;99.90
29341;DHT22;16337;59.536;13.468;2022-07-10T11:41:27;18.00;99.90
29341;DHT22;16337;59.536;13.468;2022-07-10T11:44:02;17.90;99.90
29341;DHT22;16337;59.536;13.468;2022-07-10T11:46:33;17.50;99.90
29341;DHT22;16337;59.536;13.468;2022-07-10T11:49:03;17.30;99.90
29341;DHT22;16337;59.536;13.468;2022-07-10T11:51:32;17.10;99.90
29341;DHT22;16337;59.536;13.468;2022-07-10T11:54:09;16.80;99.90
29341;DHT22;16337;59.536;13.468;2022-07-10T11:56:38;16.90;99.90
29341;DHT22;16337;59.536;13.468;2022-07-10T11:59:10;17.00;99.90
29341;DHT22;16337;59.536;13.468;2022-07-10T12:01:44;17.10;99.90
29341;DHT22;16337;59.536;13.468;2022-07-10T12:04:11;17.20;99.90
29341;DHT22;16337;59.536;13.468;2022-07-10T12:06:39;17.40;99.90
29341;DHT22;16337;59.536;13.468;2022-07-10T12:09:10;17.50;99.90
29341;DHT22;16337;59.536;13.468;2022-07-10T12:11:37;17.70;99.90
29341;DHT22;16337;59.536;13.468;2022-07-10T12:14:17;18.20;99.90
29341;DHT22;16337;59.536;13.468;2022-07-10T12:16:47;19.00;99.90
29341;DHT22;16337;59.536;13.468;2022-07-10T12:19:18;19.40;99.90
29341;DHT22;16337;59.536;13.468;2022-07-10T12:21:45;19.50;99.90
29341;DHT22;16337;59.536;13.468;2022-07-10T12:24:12;19.50;99.90
29341;DHT22;16337;59.536;13.468;2022-07-10T12:26:40;19.50;99.90
29341;DHT22;16337;59.536;13.468;2022-07-10T12:29:11;19.30;99.90
29341;DHT22;16337;59.536;13.468;2022-07-10T12:31:43;18.90;99.90
29341;DHT22;16337;59.536;13.468;2022-07-10T12:34:11;18.60;99.90
29341;DHT22;16337;59.536;13.468;2022-07-10T12:36:50;18.40;99.90
29341;DHT22;16337;59.536;13.468;2022-07-10T12:39:21;18.00;99.90
29341;DHT22;16337;59.536;13.468;2022-07-10T12:42:06;17.80;99.90
29341;DHT22;16337;59.536;13.468;2022-07-10T12:44:39;17.80;99.90
29341;DHT22;16337;59.536;13.468;2022-07-10T12:47:11;17.70;99.90
29341;DHT22;16337;59.536;13.468;2022-07-10T12:52:37;17.50;99.90
29341;DHT22;16337;59.536;13.468;2022-07-10T12:57:56;17.30;99.90
29341;DHT22;16337;59.536;13.468;2022-07-10T13:00:33;17.30;99.90
29341;DHT22;16337;59.536;13.468;2022-07-10T13:05:37;17.50;99.90
29341;DHT22;16337;59.536;13.468;2022-07-10T13:08:24;17.80;99.90
29341;DHT22;16337;59.536;13.468;2022-07-10T13:10:57;18.00;99.90
29341;DHT22;16337;59.536;13.468;2022-07-10T13:13:27;18.10;99.90
29341;DHT22;16337;59.536;13.468;2022-07-10T13:15:54;18.30;99.90
29341;DHT22;16337;59.536;13.468;2022-07-10T13:18:24;18.30;99.90
29341;DHT22;16337;59.536;13.468;2022-07-10T13:20:52;18.40;99.90
29341;DHT22;16337;59.536;13.468;2022-07-10T13:23:19;18.60;99.90
29341;DHT22;16337;59.536;13.468;2022-07-10T13:25:48;18.90;99.90
29341;DHT22;16337;59.536;13.468;2022-07-10T13:28:14;19.20;99.90
29341;DHT22;16337;59.536;13.468;2022-07-10T13:30:42;19.60;99.90
29341;DHT22;16337;59.536;13.468;2022-07-10T13:33:08;19.90;99.90
29341;DHT22;16337;59.536;13.468;2022-07-10T13:35:34;20.10;99.90
29341;DHT22;16337;59.536;13.468;2022-07-10T13:38:01;20.20;99.90
29341;DHT22;16337;59.536;13.468;2022-07-10T13:40:33;20.00;99.90
29341;DHT22;16337;59.536;13.468;2022-07-10T13:42:59;19.80;99.90
29341;DHT22;16337;59.536;13.468;2022-07-10T13:45:26;19.70;99.90
29341;DHT22;16337;59.536;13.468;2022-07-10T13:47:59;19.60;99.90
29341;DHT22;16337;59.536;13.468;2022-07-10T13:50:25;19.40;99.90
29341;DHT22;16337;59.536;13.468;2022-07-10T13:52:51;19.20;99.90
29341;DHT22;16337;59.536;13.468;2022-07-10T13:55:17;19.20;99.90
29341;DHT22;16337;59.536;13.468;2022-07-10T13:57:43;19.30;99.90
29341;DHT22;16337;59.536;13.468;2022-07-10T14:00:10;19.30;99.90
29341;DHT22;16337;59.536;13.468;2022-07-10T14:02:36;19.10;99.90
29341;DHT22;16337;59.536;13.468;2022-07-10T14:05:02;18.90;99.90
29341;DHT22;16337;59.536;13.468;2022-07-10T14:07:28;18.70;99.90
29341;DHT22;16337;59.536;13.468;2022-07-10T14:09:54;18.60;99.90
29341;DHT22;16337;59.536;13.468;2022-07-10T14:12:20;18.70;99.90
29341;DHT22;16337;59.536;13.468;2022-07-10T14:14:46;18.80;99.90
29341;DHT22;16337;59.536;13.468;2022-07-10T14:17:12;19.20;99.90
29341;DHT22;16337;59.536;13.468;2022-07-10T14:19:38;19.60;99.90
29341;DHT22;16337;59.536;13.468;2022-07-10T14:22:03;19.80;99.90
29341;DHT22;16337;59.536;13.468;2022-07-10T14:24:29;19.80;99.90
29341;DHT22;16337;59.536;13.468;2022-07-10T14:26:55;20.10;99.90
29341;DHT22;16337;59.536;13.468;2022-07-10T14:29:21;20.20;99.90
29341;DHT22;16337;59.536;13.468;2022-07-10T14:31:46;20.10;99.90
29341;DHT22;16337;59.536;13.468;2022-07-10T14:34:15;19.90;99.90
29341;DHT22;16337;59.536;13.468;2022-07-10T14:36:41;19.60;99.90
29341;DHT22;16337;59.536;13.468;2022-07-10T14:39:06;19.40;99.90
29341;DHT22;16337;59.536;13.468;2022-07-10T14:41:32;18.70;99.90
29341;DHT22;16337;59.536;13.468;2022-07-10T14:43:58;18.60;99.90
29341;DHT22;16337;59.536;13.468;2022-07-10T14:46:24;18.40;99.90
29341;DHT22;16337;59.536;13.468;2022-07-10T14:48:50;18.70;99.90
29341;DHT22;16337;59.536;13.468;2022-07-10T14:51:16;19.10;99.90
29341;DHT22;16337;59.536;13.468;2022-07-10T14:53:42;19.30;99.90
29341;DHT22;16337;59.536;13.468;2022-07-10T14:56:10;19.40;99.90
29341;DHT22;16337;59.536;13.468;2022-07-10T14:58:36;19.40;99.90
29341;DHT22;16337;59.536;13.468;2022-07-10T15:01:02;19.70;99.90
29341;DHT22;16337;59.536;13.468;2022-07-10T15:03:28;20.40;99.90
29341;DHT22;16337;59.536;13.468;2022-07-10T15:05:54;21.20;99.90
29341;DHT22;16337;59.536;13.468;2022-07-10T15:08:22;21.40;99.90
29341;DHT22;16337;59.536;13.468;2022-07-10T15:10:48;20.70;99.90
29341;DHT22;16337;59.536;13.468;2022-07-10T15:13:15;20.30;99.90
29341;DHT22;16337;59.536;13.468;2022-07-10T15:15:41;19.80;99.90
29341;DHT22;16337;59.536;13.468;2022-07-10T15:18:06;19.80;99.90
29341;DHT22;16337;59.536;13.468;2022-07-10T15:20:32;19.80;99.90
29341;DHT22;16337;59.536;13.468;2022-07-10T15:22:58;19.80;99.90
29341;DHT22;16337;59.536;13.468;2022-07-10T15:25:24;19.60;99.90
29341;DHT22;16337;59.536;13.468;2022-07-10T15:27:52;19.30;99.90
29341;DHT22;16337;59.536;13.468;2022-07-10T15:30:19;19.10;99.90
29341;DHT22;16337;59.536;13.468;2022-07-10T15:32:44;18.90;99.90
29341;DHT22;16337;59.536;13.468;2022-07-10T15:35:12;18.60;99.90
29341;DHT22;16337;59.536;13.468;2022-07-10T15:37:38;18.70;99.90
29341;DHT22;16337;59.536;13.468;2022-07-10T15:40:04;18.90;99.90
29341;DHT22;16337;59.536;13.468;2022-07-10T15:42:30;19.10;99.90
29341;DHT22;16337;59.536;13.468;2022-07-10T15:44:56;19.20;99.90
29341;DHT22;16337;59.536;13.468;2022-07-10T15:47:22;19.30;99.90
29341;DHT22;16337;59.536;13.468;2022-07-10T15:49:47;19.20;99.90
29341;DHT22;16337;59.536;13.468;2022-07-10T15:52:14;19.10;99.90
29341;DHT22;16337;59.536;13.468;2022-07-10T15:54:39;19.00;99.90
29341;DHT22;16337;59.536;13.468;2022-07-10T15:57:07;19.10;99.90
29341;DHT22;16337;59.536;13.468;2022-07-10T15:59:33;19.20;99.90
29341;DHT22;16337;59.536;13.468;2022-07-10T16:02:00;19.30;99.90